Time;durP1;ratioP1;P1;durP2;ratioP2;P2;SDS_P1;SDS_P2;PMS_P1;PMS_P2;Temp;Humidity;BMP_temperature;BMP_pressure;BME280_temperature;BME280_humidity;BME280_pressure;Samples;Min_cycle;Max_cycle;Signal;HPM_P1;HPM_P2
2022/11/15 00:00:17;;;;;;;;;;;16.10;93.00;;;;;;5112444;28;19916;-92
2022/11/15 00:02:43;;;;;;;;;;;16.10;93.00;;;;;;5113800;28;19908;-91
2022/11/15 00:05:08;;;;;;;;;;;16.10;93.00;;;;;;5111759;28;19914;-91
2022/11/15 00:07:34;;;;;;;;;;;16.10;93.00;;;;;;5110922;28;20142;-92
2022/11/15 00:09:59;;;;;;;;;;;16.10;93.10;;;;;;5112513;28;19963;-90
2022/11/15 00:12:26;;;;;;;;;;;16.10;93.00;;;;;;5111889;28;20002;-92
2022/11/15 00:14:52;;;;;;;;;;;16.10;93.00;;;;;;5110883;28;19912;-92
2022/11/15 00:17:17;;;;;;;;;;;16.10;93.10;;;;;;5109480;28;19938;-92
2022/11/15 00:19:43;;;;;;;;;;;16.10;93.10;;;;;;5112128;28;19912;-91
2022/11/15 00:22:09;;;;;;;;;;;16.10;93.10;;;;;;5113027;28;19907;-91
2022/11/15 00:24:35;;;;;;;;;;;16.10;93.10;;;;;;5113551;28;19916;-91
2022/11/15 00:27:01;;;;;;;;;;;16.10;93.10;;;;;;5114088;28;19958;-91
2022/11/15 00:29:26;;;;;;;;;;;16.10;93.10;;;;;;5080034;28;19959;-91
2022/11/15 00:31:52;;;;;;;;;;;16.10;93.10;;;;;;5113810;28;20002;-92
2022/11/15 00:34:17;;;;;;;;;;;16.10;93.10;;;;;;5112382;28;19938;-91
2022/11/15 00:36:43;;;;;;;;;;;16.10;93.00;;;;;;5113292;28;19919;-91
2022/11/15 00:39:08;;;;;;;;;;;16.10;93.00;;;;;;5113225;28;19908;-91
2022/11/15 00:41:34;;;;;;;;;;;16.10;93.00;;;;;;5113676;28;19908;-91
2022/11/15 00:44:00;;;;;;;;;;;16.10;93.00;;;;;;5110260;28;19919;-91
2022/11/15 00:46:25;;;;;;;;;;;16.10;93.00;;;;;;5089045;28;19908;-91
2022/11/15 00:48:51;;;;;;;;;;;16.10;93.00;;;;;;5109813;28;20408;-91
2022/11/15 00:51:16;;;;;;;;;;;16.20;93.00;;;;;;5103458;28;19916;-91
2022/11/15 00:53:43;;;;;;;;;;;16.20;93.00;;;;;;5106541;28;19927;-93
2022/11/15 00:56:08;;;;;;;;;;;16.20;93.00;;;;;;5100433;28;19919;-91
2022/11/15 00:58:37;;;;;;;;;;;16.20;93.00;;;;;;5109336;28;19908;-93
2022/11/15 01:01:09;;;;;;;;;;;16.20;93.00;;;;;;5106465;28;19931;-92
2022/11/15 01:03:35;;;;;;;;;;;16.20;93.00;;;;;;5102246;28;20288;-93
2022/11/15 01:06:02;;;;;;;;;;;16.20;93.00;;;;;;5108173;28;20384;-91
2022/11/15 01:08:28;;;;;;;;;;;16.20;92.90;;;;;;5108370;28;20143;-92
2022/11/15 01:10:53;;;;;;;;;;;16.20;92.90;;;;;;5107319;28;20011;-90
2022/11/15 01:13:19;;;;;;;;;;;16.20;92.90;;;;;;5108907;28;19952;-91
2022/11/15 01:15:45;;;;;;;;;;;16.20;92.90;;;;;;5110320;28;20011;-91
2022/11/15 01:18:10;;;;;;;;;;;16.20;92.90;;;;;;5109511;28;19919;-90
2022/11/15 01:20:40;;;;;;;;;;;16.20;92.90;;;;;;5109815;28;19908;-90
2022/11/15 01:23:05;;;;;;;;;;;16.20;92.80;;;;;;5109734;28;19915;-90
2022/11/15 01:25:31;;;;;;;;;;;16.20;92.80;;;;;;5111776;28;19908;-90
2022/11/15 01:27:57;;;;;;;;;;;16.20;92.90;;;;;;5095201;28;19968;-92
2022/11/15 01:30:22;;;;;;;;;;;16.20;92.90;;;;;;5111582;28;19969;-91
2022/11/15 01:32:48;;;;;;;;;;;16.20;92.90;;;;;;5111293;28;19912;-91
2022/11/15 01:35:15;;;;;;;;;;;16.20;92.90;;;;;;5110691;28;19916;-90
2022/11/15 01:37:40;;;;;;;;;;;16.20;92.90;;;;;;5111467;28;19908;-91
2022/11/15 01:40:06;;;;;;;;;;;16.20;92.90;;;;;;5077921;28;19909;-91
2022/11/15 01:42:31;;;;;;;;;;;16.20;92.90;;;;;;5111377;28;19908;-91
2022/11/15 01:44:57;;;;;;;;;;;16.20;92.90;;;;;;5113045;28;19915;-90
2022/11/15 01:47:28;;;;;;;;;;;16.20;92.90;;;;;;5115066;28;19916;-91
2022/11/15 01:50:03;;;;;;;;;;;16.20;92.90;;;;;;5115255;28;19935;-91
2022/11/15 01:52:30;;;;;;;;;;;16.20;92.90;;;;;;5115235;27;19908;-91
2022/11/15 01:55:03;;;;;;;;;;;16.20;92.90;;;;;;5115610;28;19975;-90
2022/11/15 01:57:29;;;;;;;;;;;16.20;92.90;;;;;;5115155;28;19916;-91
2022/11/15 01:59:55;;;;;;;;;;;16.20;92.90;;;;;;5114506;28;19982;-91
2022/11/15 02:02:20;;;;;;;;;;;16.20;92.90;;;;;;5080086;28;20233;-90
2022/11/15 02:04:47;;;;;;;;;;;16.20;92.90;;;;;;5115486;28;20073;-91
2022/11/15 02:07:17;;;;;;;;;;;16.20;92.90;;;;;;5115241;28;20480;-93
2022/11/15 02:09:43;;;;;;;;;;;16.20;93.00;;;;;;5115749;28;19908;-91
2022/11/15 02:12:09;;;;;;;;;;;16.20;93.00;;;;;;5114737;28;20018;-91
2022/11/15 02:14:37;;;;;;;;;;;16.20;92.90;;;;;;5115456;28;20362;-90
2022/11/15 02:17:22;;;;;;;;;;;16.20;93.00;;;;;;5115504;28;20230;-92
2022/11/15 02:19:53;;;;;;;;;;;16.20;93.00;;;;;;5116011;28;19919;-91
2022/11/15 02:22:23;;;;;;;;;;;16.20;93.00;;;;;;5081207;28;19969;-91
2022/11/15 02:25:07;;;;;;;;;;;16.30;93.10;;;;;;5066198;28;20078;-91
2022/11/15 02:27:54;;;;;;;;;;;16.30;93.10;;;;;;5111837;28;19951;-91
2022/11/15 02:30:34;;;;;;;;;;;16.30;93.10;;;;;;5112044;28;19908;-91
2022/11/15 02:33:05;;;;;;;;;;;16.20;93.10;;;;;;5113645;28;20011;-91
2022/11/15 02:35:34;;;;;;;;;;;16.20;93.10;;;;;;5080021;28;20273;-91
2022/11/15 02:38:06;;;;;;;;;;;16.30;93.10;;;;;;5080295;28;20011;-91
2022/11/15 02:40:38;;;;;;;;;;;16.20;93.10;;;;;;5115773;28;20014;-92
2022/11/15 02:45:53;;;;;;;;;;;16.20;93.20;;;;;;5099749;28;19919;-91
2022/11/15 02:48:21;;;;;;;;;;;16.20;93.20;;;;;;5115657;28;19908;-91
2022/11/15 02:50:46;;;;;;;;;;;16.20;93.20;;;;;;5116039;28;19908;-91
2022/11/15 02:53:13;;;;;;;;;;;16.20;93.20;;;;;;5086826;28;19908;-91
2022/11/15 02:55:49;;;;;;;;;;;16.20;93.30;;;;;;5111002;28;20262;-92
2022/11/15 02:58:20;;;;;;;;;;;16.20;93.30;;;;;;5110581;28;19916;-92
2022/11/15 03:01:00;;;;;;;;;;;16.20;93.30;;;;;;5076439;28;19908;-92
2022/11/15 03:03:34;;;;;;;;;;;16.20;93.30;;;;;;5089069;28;19909;-90
2022/11/15 03:06:06;;;;;;;;;;;16.20;93.30;;;;;;5109641;28;19994;-91
2022/11/15 03:08:32;;;;;;;;;;;16.20;93.40;;;;;;5074314;28;20306;-92
2022/11/15 03:11:07;;;;;;;;;;;16.20;93.40;;;;;;5100609;28;19962;-91
2022/11/15 03:13:39;;;;;;;;;;;16.20;93.50;;;;;;5077487;28;19908;-91
2022/11/15 03:16:11;;;;;;;;;;;16.20;93.50;;;;;;5075257;28;19977;-91
2022/11/15 03:18:45;;;;;;;;;;;16.20;93.50;;;;;;5070487;28;19947;-92
2022/11/15 03:21:12;;;;;;;;;;;16.20;93.60;;;;;;5109277;28;19909;-91
2022/11/15 03:23:38;;;;;;;;;;;16.20;93.60;;;;;;5112159;28;19999;-91
2022/11/15 03:26:06;;;;;;;;;;;16.20;93.60;;;;;;5097056;28;20296;-91
2022/11/15 03:28:34;;;;;;;;;;;16.20;93.50;;;;;;5114710;28;19939;-90
2022/11/15 03:31:00;;;;;;;;;;;16.20;93.60;;;;;;5109450;28;19908;-90
2022/11/15 03:33:27;;;;;;;;;;;16.20;93.50;;;;;;5114555;28;20413;-91
2022/11/15 03:35:53;;;;;;;;;;;16.20;93.50;;;;;;5113730;28;20268;-90
2022/11/15 03:38:24;;;;;;;;;;;16.20;93.50;;;;;;5091240;28;19915;-91
2022/11/15 03:41:00;;;;;;;;;;;16.30;93.60;;;;;;5092054;28;20204;-91
2022/11/15 03:43:42;;;;;;;;;;;16.20;93.60;;;;;;5098047;28;20042;-91
2022/11/15 03:46:14;;;;;;;;;;;16.20;93.60;;;;;;5113997;28;19969;-91
2022/11/15 03:48:43;;;;;;;;;;;16.20;93.60;;;;;;5113873;28;19918;-90
2022/11/15 03:51:09;;;;;;;;;;;16.20;93.60;;;;;;5111083;28;19939;-91
2022/11/15 03:53:35;;;;;;;;;;;16.20;93.70;;;;;;5111510;28;20006;-91
2022/11/15 03:56:00;;;;;;;;;;;16.20;93.80;;;;;;5112569;28;19912;-91
2022/11/15 03:58:26;;;;;;;;;;;16.20;93.80;;;;;;5112781;28;20122;-91
2022/11/15 04:00:51;;;;;;;;;;;16.20;93.80;;;;;;5110681;28;19916;-91
2022/11/15 04:03:17;;;;;;;;;;;16.20;93.80;;;;;;5109620;28;20239;-91
2022/11/15 04:05:42;;;;;;;;;;;16.20;93.80;;;;;;5109682;28;19927;-91
2022/11/15 04:08:08;;;;;;;;;;;16.20;93.80;;;;;;5110526;28;19918;-90
2022/11/15 04:10:34;;;;;;;;;;;16.10;93.90;;;;;;5077676;28;19912;-91
2022/11/15 04:13:01;;;;;;;;;;;16.20;94.00;;;;;;5111126;28;20269;-91
2022/11/15 04:15:28;;;;;;;;;;;16.20;94.00;;;;;;5111037;28;20073;-91
2022/11/15 04:17:55;;;;;;;;;;;16.30;93.80;;;;;;5095793;28;19919;-90
2022/11/15 04:25:59;;;;;;;;;;;16.80;92.70;;;;;;5095847;28;20016;-91
2022/11/15 04:28:25;;;;;;;;;;;17.00;92.10;;;;;;5111117;28;19920;-91
2022/11/15 04:30:50;;;;;;;;;;;17.20;91.70;;;;;;5111878;28;19908;-90
2022/11/15 04:33:16;;;;;;;;;;;17.30;91.30;;;;;;5111202;28;19927;-91
2022/11/15 04:35:42;;;;;;;;;;;17.40;91.00;;;;;;5111588;28;20207;-91
2022/11/15 04:38:09;;;;;;;;;;;17.40;90.70;;;;;;5112343;28;19939;-91
2022/11/15 04:40:35;;;;;;;;;;;17.50;90.50;;;;;;5112077;28;19912;-91
2022/11/15 04:43:00;;;;;;;;;;;17.50;90.50;;;;;;5089254;28;20377;-91
2022/11/15 04:45:26;;;;;;;;;;;17.50;90.40;;;;;;5111777;28;20398;-91
2022/11/15 04:47:53;;;;;;;;;;;17.50;90.40;;;;;;5109731;28;22594;-91
2022/11/15 04:50:19;;;;;;;;;;;17.50;90.50;;;;;;5110790;28;19919;-91
2022/11/15 04:52:54;;;;;;;;;;;17.40;90.60;;;;;;5111336;28;20022;-89
2022/11/15 04:55:20;;;;;;;;;;;17.30;90.70;;;;;;5111954;28;19916;-91
2022/11/15 04:57:45;;;;;;;;;;;17.30;91.00;;;;;;5111154;28;20296;-91
2022/11/15 05:00:12;;;;;;;;;;;17.30;91.10;;;;;;5112749;28;19919;-92
2022/11/15 05:05:24;;;;;;;;;;;17.20;91.50;;;;;;5094820;28;19969;-91
2022/11/15 05:07:49;;;;;;;;;;;17.10;91.60;;;;;;5090313;28;19908;-91
2022/11/15 05:10:15;;;;;;;;;;;17.10;91.80;;;;;;5108271;28;19916;-90
2022/11/15 05:12:40;;;;;;;;;;;17.10;91.90;;;;;;5110229;28;20256;-90
2022/11/15 05:15:06;;;;;;;;;;;17.00;92.00;;;;;;5109779;28;20400;-91
2022/11/15 05:17:32;;;;;;;;;;;17.00;92.10;;;;;;5109167;28;20360;-92
2022/11/15 05:19:57;;;;;;;;;;;17.00;92.20;;;;;;5109597;28;20006;-91
2022/11/15 05:22:23;;;;;;;;;;;16.90;92.40;;;;;;5110336;28;20231;-91
2022/11/15 05:24:49;;;;;;;;;;;16.90;92.50;;;;;;5094615;28;19931;-90
2022/11/15 05:27:14;;;;;;;;;;;16.90;92.60;;;;;;5110159;28;20016;-91
2022/11/15 05:29:40;;;;;;;;;;;16.80;92.60;;;;;;5111440;28;19908;-90
2022/11/15 05:32:08;;;;;;;;;;;16.80;92.70;;;;;;5110996;28;20025;-91
2022/11/15 05:34:33;;;;;;;;;;;16.80;92.80;;;;;;5094499;28;19916;-90
2022/11/15 05:36:59;;;;;;;;;;;16.70;92.90;;;;;;5111261;28;19908;-91
2022/11/15 05:39:25;;;;;;;;;;;16.70;93.00;;;;;;5092550;28;20174;-92
2022/11/15 05:41:54;;;;;;;;;;;16.70;93.10;;;;;;5109552;28;19970;-91
2022/11/15 05:44:21;;;;;;;;;;;16.70;93.20;;;;;;5092495;28;19916;-91
2022/11/15 05:46:46;;;;;;;;;;;16.60;93.20;;;;;;5110230;28;19995;-90
2022/11/15 05:49:13;;;;;;;;;;;16.60;93.30;;;;;;5109748;28;19999;-91
2022/11/15 05:51:40;;;;;;;;;;;16.60;93.30;;;;;;5093182;28;20269;-90
2022/11/15 05:54:06;;;;;;;;;;;16.60;93.40;;;;;;5108249;28;20012;-90
2022/11/15 05:56:31;;;;;;;;;;;16.60;93.50;;;;;;5094623;28;20031;-91
2022/11/15 05:58:58;;;;;;;;;;;16.60;93.60;;;;;;5106561;28;19908;-90
2022/11/15 06:01:25;;;;;;;;;;;16.60;93.60;;;;;;5110427;28;19953;-91
2022/11/15 06:03:50;;;;;;;;;;;16.60;93.70;;;;;;5105304;28;19927;-91
2022/11/15 06:06:16;;;;;;;;;;;16.60;93.70;;;;;;5105046;28;19908;-91
2022/11/15 06:08:41;;;;;;;;;;;16.60;93.90;;;;;;5104698;28;19916;-91
2022/11/15 06:11:07;;;;;;;;;;;16.50;94.20;;;;;;5086523;28;19908;-91
2022/11/15 06:13:33;;;;;;;;;;;16.60;94.60;;;;;;5105314;28;19912;-91
2022/11/15 06:15:59;;;;;;;;;;;16.60;94.70;;;;;;5105532;28;20296;-90
2022/11/15 06:18:25;;;;;;;;;;;16.60;94.80;;;;;;5102596;28;20148;-92
2022/11/15 06:20:50;;;;;;;;;;;16.60;95.00;;;;;;5104705;28;20028;-91
2022/11/15 06:23:18;;;;;;;;;;;16.70;95.00;;;;;;5102502;28;20414;-90
2022/11/15 06:25:44;;;;;;;;;;;16.70;95.00;;;;;;5069035;28;19920;-91
2022/11/15 06:28:09;;;;;;;;;;;16.70;95.00;;;;;;5104510;28;20196;-91
2022/11/15 06:30:35;;;;;;;;;;;16.70;95.10;;;;;;5071073;28;19909;-91
2022/11/15 06:33:04;;;;;;;;;;;16.80;95.10;;;;;;5107806;28;19924;-91
2022/11/15 06:35:32;;;;;;;;;;;16.80;95.30;;;;;;5105571;28;19980;-91
2022/11/15 06:38:08;;;;;;;;;;;16.90;95.40;;;;;;5106114;28;20035;-91
2022/11/15 06:40:38;;;;;;;;;;;16.90;95.40;;;;;;5105990;28;19943;-91
2022/11/15 06:43:03;;;;;;;;;;;16.90;95.40;;;;;;5105746;28;19908;-90
2022/11/15 06:45:38;;;;;;;;;;;16.90;95.30;;;;;;5076145;28;20184;-90
2022/11/15 06:48:04;;;;;;;;;;;17.00;95.30;;;;;;5106522;28;19908;-90
2022/11/15 06:50:30;;;;;;;;;;;17.00;95.30;;;;;;5105299;28;19915;-90
2022/11/15 06:52:59;;;;;;;;;;;17.00;95.30;;;;;;5089155;28;19995;-90
2022/11/15 06:55:25;;;;;;;;;;;17.00;95.60;;;;;;5106409;28;20253;-91
2022/11/15 06:57:52;;;;;;;;;;;17.00;95.40;;;;;;5094485;28;20006;-90
2022/11/15 07:00:18;;;;;;;;;;;17.00;95.40;;;;;;5103856;28;19974;-91
2022/11/15 07:02:44;;;;;;;;;;;17.00;95.50;;;;;;5079103;28;20269;-91
2022/11/15 07:05:10;;;;;;;;;;;17.00;95.50;;;;;;5105533;28;19908;-91
2022/11/15 07:07:35;;;;;;;;;;;17.00;95.50;;;;;;5080208;28;19908;-91
2022/11/15 07:10:01;;;;;;;;;;;17.00;95.50;;;;;;5106027;28;20019;-91
2022/11/15 07:12:27;;;;;;;;;;;17.00;95.40;;;;;;5091547;28;19942;-92
2022/11/15 07:14:52;;;;;;;;;;;17.00;95.50;;;;;;5106661;28;19938;-91
2022/11/15 07:17:18;;;;;;;;;;;17.00;95.40;;;;;;5091613;28;19912;-91
2022/11/15 07:19:43;;;;;;;;;;;17.00;95.40;;;;;;5090440;28;19916;-92
2022/11/15 07:22:09;;;;;;;;;;;17.00;95.40;;;;;;5107545;28;19977;-91
2022/11/15 07:24:35;;;;;;;;;;;17.00;95.50;;;;;;5085483;28;20207;-92
2022/11/15 07:27:00;;;;;;;;;;;17.10;95.50;;;;;;5104847;28;19908;-92
2022/11/15 07:29:26;;;;;;;;;;;17.10;95.40;;;;;;5100653;28;20003;-92
2022/11/15 07:31:51;;;;;;;;;;;17.10;95.40;;;;;;5102144;28;20128;-92
2022/11/15 07:34:17;;;;;;;;;;;17.10;95.40;;;;;;5104426;28;20012;-91
2022/11/15 07:36:42;;;;;;;;;;;17.10;95.30;;;;;;5102398;28;20077;-92
2022/11/15 07:39:08;;;;;;;;;;;17.10;95.30;;;;;;5101121;28;19908;-92
2022/11/15 07:41:34;;;;;;;;;;;17.10;95.20;;;;;;5085914;28;19974;-92
2022/11/15 07:44:01;;;;;;;;;;;17.10;95.10;;;;;;5081805;28;19909;-92
2022/11/15 07:46:26;;;;;;;;;;;17.20;95.10;;;;;;5066891;28;19924;-92
2022/11/15 07:48:52;;;;;;;;;;;17.20;95.00;;;;;;5069086;28;19909;-93
2022/11/15 07:51:18;;;;;;;;;;;17.20;95.10;;;;;;5073426;28;20004;-92
2022/11/15 07:53:44;;;;;;;;;;;17.20;94.90;;;;;;5107100;28;19908;-91
2022/11/15 07:56:09;;;;;;;;;;;17.20;94.70;;;;;;5105168;28;19947;-92
2022/11/15 07:58:35;;;;;;;;;;;17.30;94.70;;;;;;5104725;28;19919;-93
2022/11/15 08:01:08;;;;;;;;;;;17.30;94.50;;;;;;5104508;28;20207;-93
2022/11/15 08:03:34;;;;;;;;;;;17.30;94.40;;;;;;5069794;28;19920;-91
2022/11/15 08:06:00;;;;;;;;;;;17.50;94.30;;;;;;5104085;28;19994;-91
2022/11/15 08:08:26;;;;;;;;;;;17.60;94.00;;;;;;5089520;28;20004;-91
2022/11/15 08:10:51;;;;;;;;;;;17.70;93.60;;;;;;5091255;28;20228;-91
2022/11/15 08:13:17;;;;;;;;;;;18.10;92.80;;;;;;5071355;28;19952;-91
2022/11/15 08:15:43;;;;;;;;;;;18.40;91.90;;;;;;5073689;28;20002;-91
2022/11/15 08:18:13;;;;;;;;;;;18.70;91.10;;;;;;5069379;28;19920;-92
2022/11/15 08:20:39;;;;;;;;;;;19.20;89.70;;;;;;5104842;28;20160;-92
2022/11/15 08:23:05;;;;;;;;;;;19.70;85.50;;;;;;5071562;28;19951;-91
2022/11/15 08:25:31;;;;;;;;;;;19.70;82.90;;;;;;5098408;28;19923;-93
2022/11/15 08:27:58;;;;;;;;;;;19.70;83.10;;;;;;5106702;28;19951;-91
2022/11/15 08:30:24;;;;;;;;;;;20.00;81.40;;;;;;5106583;28;20204;-94
2022/11/15 08:32:50;;;;;;;;;;;20.10;80.10;;;;;;5091206;28;20079;-93
2022/11/15 08:35:17;;;;;;;;;;;20.10;79.50;;;;;;5099460;28;20200;-93
2022/11/15 08:37:42;;;;;;;;;;;20.10;79.20;;;;;;5106236;28;20308;-91
2022/11/15 08:40:09;;;;;;;;;;;20.40;78.20;;;;;;5102900;28;20020;-92
2022/11/15 08:42:35;;;;;;;;;;;20.60;76.00;;;;;;5106116;28;20077;-92
2022/11/15 08:45:00;;;;;;;;;;;20.40;75.70;;;;;;5103114;28;19994;-91
2022/11/15 08:47:26;;;;;;;;;;;20.20;77.10;;;;;;5102507;28;19919;-92
2022/11/15 08:49:52;;;;;;;;;;;20.10;77.90;;;;;;5094631;28;20201;-91
2022/11/15 08:52:17;;;;;;;;;;;20.00;78.30;;;;;;5095483;28;19908;-92
2022/11/15 08:54:43;;;;;;;;;;;20.00;78.50;;;;;;5102777;28;19912;-92
2022/11/15 08:57:09;;;;;;;;;;;19.90;79.00;;;;;;5103014;28;20080;-92
2022/11/15 08:59:35;;;;;;;;;;;20.10;78.80;;;;;;5087254;28;19912;-92
2022/11/15 09:02:01;;;;;;;;;;;20.10;78.50;;;;;;5102809;28;19908;-93
2022/11/15 09:04:26;;;;;;;;;;;20.00;78.80;;;;;;5103180;28;20196;-93
2022/11/15 09:06:52;;;;;;;;;;;19.90;78.50;;;;;;5102357;28;19912;-93
2022/11/15 09:09:17;;;;;;;;;;;19.90;79.10;;;;;;5103352;28;19923;-92
2022/11/15 09:11:43;;;;;;;;;;;19.80;79.20;;;;;;5101896;28;20169;-93
2022/11/15 09:14:10;;;;;;;;;;;19.90;79.20;;;;;;5102493;28;20183;-94
2022/11/15 09:16:36;;;;;;;;;;;19.80;79.10;;;;;;5100611;28;20339;-93
2022/11/15 09:19:02;;;;;;;;;;;19.80;79.20;;;;;;5099085;28;19908;-93
2022/11/15 09:21:28;;;;;;;;;;;19.70;80.30;;;;;;5101776;28;20201;-92
2022/11/15 09:23:54;;;;;;;;;;;19.60;80.00;;;;;;5085643;28;20323;-93
2022/11/15 09:26:19;;;;;;;;;;;19.50;80.60;;;;;;5068490;28;19911;-92
2022/11/15 09:28:45;;;;;;;;;;;19.50;81.20;;;;;;5101696;28;19912;-92
2022/11/15 09:31:11;;;;;;;;;;;19.40;81.40;;;;;;5103219;28;19908;-92
2022/11/15 09:33:36;;;;;;;;;;;19.40;81.70;;;;;;5101930;28;20000;-92
2022/11/15 09:36:03;;;;;;;;;;;19.30;82.10;;;;;;5102900;28;19923;-92
2022/11/15 09:38:28;;;;;;;;;;;19.30;82.50;;;;;;5105198;28;19912;-93
2022/11/15 09:41:08;;;;;;;;;;;19.20;82.90;;;;;;5105771;28;19938;-92
2022/11/15 09:43:49;;;;;;;;;;;19.20;83.40;;;;;;5102099;28;20006;-92
2022/11/15 09:46:22;;;;;;;;;;;19.10;83.80;;;;;;5068912;28;19919;-92
2022/11/15 09:48:49;;;;;;;;;;;19.10;84.30;;;;;;5102707;28;19912;-92
2022/11/15 09:51:35;;;;;;;;;;;19.10;84.60;;;;;;5104748;28;20018;-92
2022/11/15 09:54:07;;;;;;;;;;;19.10;84.60;;;;;;5102506;28;20033;-93
2022/11/15 09:56:36;;;;;;;;;;;19.10;84.70;;;;;;5067913;28;20292;-93
2022/11/15 09:59:01;;;;;;;;;;;19.00;84.60;;;;;;5103620;28;19915;-92
2022/11/15 10:01:30;;;;;;;;;;;19.10;85.40;;;;;;5070134;28;19908;-92
2022/11/15 10:03:57;;;;;;;;;;;19.10;84.70;;;;;;5069864;28;20349;-92
2022/11/15 10:06:25;;;;;;;;;;;19.10;84.60;;;;;;5104622;28;20019;-92
2022/11/15 10:09:26;;;;;;;;;;;19.00;85.10;;;;;;5105584;28;19988;-92
2022/11/15 10:11:51;;;;;;;;;;;19.10;84.50;;;;;;4993278;28;19909;-92
2022/11/15 10:14:19;;;;;;;;;;;19.10;84.40;;;;;;5055347;28;19908;-92
2022/11/15 10:16:53;;;;;;;;;;;19.10;84.40;;;;;;5108578;28;19982;-92
2022/11/15 10:19:35;;;;;;;;;;;19.10;84.60;;;;;;5106860;28;19919;-92
2022/11/15 10:22:16;;;;;;;;;;;19.10;84.20;;;;;;5108139;28;19918;-92
2022/11/15 10:24:43;;;;;;;;;;;19.10;84.10;;;;;;5107789;28;19924;-92
2022/11/15 10:27:12;;;;;;;;;;;19.10;84.20;;;;;;5089774;28;19919;-91
2022/11/15 10:29:42;;;;;;;;;;;19.10;84.30;;;;;;5105364;28;20033;-92
2022/11/15 10:32:09;;;;;;;;;;;19.10;84.50;;;;;;5106095;28;19908;-92
2022/11/15 10:34:35;;;;;;;;;;;19.10;85.00;;;;;;5102244;28;20082;-92
2022/11/15 10:37:01;;;;;;;;;;;19.10;85.30;;;;;;5069801;28;19912;-92
2022/11/15 10:39:27;;;;;;;;;;;19.10;85.40;;;;;;5103423;28;19935;-92
2022/11/15 10:41:53;;;;;;;;;;;19.10;85.40;;;;;;5103002;28;19916;-92
2022/11/15 10:44:26;;;;;;;;;;;19.10;85.60;;;;;;5100840;28;20205;-92
2022/11/15 10:46:55;;;;;;;;;;;19.10;85.90;;;;;;5101808;28;20134;-91
2022/11/15 10:49:28;;;;;;;;;;;19.10;86.10;;;;;;5067939;28;19920;-92
2022/11/15 10:51:56;;;;;;;;;;;19.10;86.30;;;;;;5103019;28;19915;-92
2022/11/15 10:54:24;;;;;;;;;;;19.10;86.40;;;;;;5101253;28;19916;-92
2022/11/15 10:56:52;;;;;;;;;;;19.10;86.40;;;;;;5086102;28;19995;-92
2022/11/15 10:59:23;;;;;;;;;;;19.10;86.60;;;;;;5104139;28;19916;-92
2022/11/15 11:01:49;;;;;;;;;;;19.10;86.70;;;;;;5103475;28;19908;-91
2022/11/15 11:04:14;;;;;;;;;;;19.00;86.60;;;;;;5103291;28;20021;-93
2022/11/15 11:06:49;;;;;;;;;;;19.00;86.70;;;;;;5102586;28;20289;-91
2022/11/15 11:09:34;;;;;;;;;;;19.00;86.70;;;;;;5089303;28;20076;-92
2022/11/15 11:12:00;;;;;;;;;;;19.00;86.80;;;;;;5106758;28;20349;-91
2022/11/15 11:14:27;;;;;;;;;;;19.00;86.90;;;;;;5106342;28;19912;-92
2022/11/15 11:16:59;;;;;;;;;;;18.90;87.00;;;;;;5105866;28;19961;-92
2022/11/15 11:19:34;;;;;;;;;;;18.90;87.10;;;;;;5071874;28;20129;-92
2022/11/15 11:22:09;;;;;;;;;;;18.90;87.20;;;;;;5072437;28;19909;-92
2022/11/15 11:24:53;;;;;;;;;;;18.90;87.30;;;;;;5071463;28;19908;-92
2022/11/15 11:27:24;;;;;;;;;;;18.80;87.50;;;;;;5103215;28;19936;-93
2022/11/15 11:30:09;;;;;;;;;;;18.80;87.80;;;;;;5070835;28;19908;-93
2022/11/15 11:32:50;;;;;;;;;;;18.80;87.90;;;;;;5104248;28;20249;-92
2022/11/15 11:35:35;;;;;;;;;;;18.70;87.80;;;;;;5071737;28;19923;-93
2022/11/15 11:38:00;;;;;;;;;;;18.70;87.70;;;;;;5102947;28;19947;-92
2022/11/15 11:40:39;;;;;;;;;;;18.70;87.80;;;;;;5072203;28;19970;-93
2022/11/15 11:43:22;;;;;;;;;;;18.70;87.80;;;;;;5104023;28;20231;-93
2022/11/15 11:46:07;;;;;;;;;;;18.60;87.70;;;;;;5103781;28;19908;-93
2022/11/15 11:48:38;;;;;;;;;;;18.60;87.60;;;;;;5103985;28;19920;-92
2022/11/15 11:51:13;;;;;;;;;;;18.60;87.60;;;;;;5069654;28;19984;-92
2022/11/15 11:53:51;;;;;;;;;;;18.60;87.70;;;;;;5103867;28;19939;-93
2022/11/15 11:56:23;;;;;;;;;;;18.60;87.80;;;;;;5102124;28;19912;-91
2022/11/15 11:58:50;;;;;;;;;;;18.50;87.80;;;;;;5068957;28;19947;-93
2022/11/15 12:01:20;;;;;;;;;;;18.60;88.00;;;;;;5101896;28;20193;-92
2022/11/15 12:03:47;;;;;;;;;;;18.50;87.90;;;;;;5103237;28;19944;-93
2022/11/15 12:06:32;;;;;;;;;;;18.50;88.10;;;;;;5103207;28;20397;-92
2022/11/15 12:09:16;;;;;;;;;;;18.50;88.90;;;;;;5103050;28;20184;-93
2022/11/15 12:12:01;;;;;;;;;;;18.40;88.20;;;;;;5104840;28;19909;-92
2022/11/15 12:14:26;;;;;;;;;;;18.40;88.20;;;;;;5103377;28;20265;-91
2022/11/15 12:16:52;;;;;;;;;;;18.40;87.70;;;;;;5068096;28;19919;-91
2022/11/15 12:19:17;;;;;;;;;;;18.40;87.20;;;;;;5101020;28;20018;-92
2022/11/15 12:21:46;;;;;;;;;;;18.40;86.90;;;;;;5098156;28;19908;-92
2022/11/15 12:24:18;;;;;;;;;;;18.40;86.80;;;;;;5065135;28;20167;-92
2022/11/15 12:26:52;;;;;;;;;;;18.30;86.40;;;;;;5065518;28;19973;-92
2022/11/15 12:29:37;;;;;;;;;;;18.30;85.90;;;;;;5100452;28;19935;-91
2022/11/15 12:32:04;;;;;;;;;;;18.30;85.60;;;;;;5087336;28;19919;-92
2022/11/15 12:34:36;;;;;;;;;;;18.30;84.70;;;;;;5100960;28;20213;-91
2022/11/15 12:37:01;;;;;;;;;;;18.30;84.10;;;;;;5084828;28;20006;-92
2022/11/15 12:39:46;;;;;;;;;;;18.30;83.90;;;;;;5103546;28;20076;-92
2022/11/15 12:42:12;;;;;;;;;;;18.30;83.70;;;;;;5103106;28;19908;-92
2022/11/15 12:44:38;;;;;;;;;;;18.30;83.70;;;;;;5066989;28;19908;-92
2022/11/15 12:47:22;;;;;;;;;;;18.30;83.60;;;;;;5066209;28;19908;-92
2022/11/15 12:49:48;;;;;;;;;;;18.20;83.70;;;;;;5103182;28;19957;-92
2022/11/15 12:52:14;;;;;;;;;;;18.20;83.60;;;;;;5067678;28;19908;-92
2022/11/15 12:54:40;;;;;;;;;;;18.20;84.00;;;;;;5100579;28;19908;-91
2022/11/15 12:57:06;;;;;;;;;;;18.20;84.10;;;;;;5068660;28;20243;-92
2022/11/15 12:59:51;;;;;;;;;;;18.20;84.30;;;;;;5071211;28;19908;-92
2022/11/15 13:02:17;;;;;;;;;;;18.10;84.50;;;;;;5104813;28;19909;-92
2022/11/15 13:04:43;;;;;;;;;;;18.10;84.80;;;;;;5070512;28;20269;-92
2022/11/15 13:07:28;;;;;;;;;;;18.10;84.80;;;;;;5101957;28;19908;-91
2022/11/15 13:09:55;;;;;;;;;;;18.10;85.20;;;;;;5104278;28;19908;-91
2022/11/15 13:12:27;;;;;;;;;;;18.10;85.10;;;;;;5106834;28;20021;-93
2022/11/15 13:15:12;;;;;;;;;;;18.10;85.10;;;;;;5071579;28;19912;-91
2022/11/15 13:17:45;;;;;;;;;;;18.10;85.50;;;;;;5099494;28;19908;-92
2022/11/15 13:20:11;;;;;;;;;;;18.10;85.90;;;;;;5102887;28;19935;-92
2022/11/15 13:22:50;;;;;;;;;;;18.10;86.40;;;;;;5067278;28;19912;-91
2022/11/15 13:25:19;;;;;;;;;;;18.10;86.60;;;;;;5102686;28;20157;-91
2022/11/15 13:27:47;;;;;;;;;;;18.10;86.80;;;;;;5102366;28;19973;-92
2022/11/15 13:30:22;;;;;;;;;;;18.10;87.10;;;;;;5102534;28;20196;-91
2022/11/15 13:32:49;;;;;;;;;;;18.10;87.30;;;;;;5106579;28;20018;-93
2022/11/15 13:35:19;;;;;;;;;;;18.10;87.30;;;;;;5105368;28;19973;-92
2022/11/15 13:37:44;;;;;;;;;;;18.00;87.20;;;;;;5105844;28;20431;-91
2022/11/15 13:40:22;;;;;;;;;;;18.00;87.30;;;;;;5101860;28;20186;-92
2022/11/15 13:42:48;;;;;;;;;;;18.00;87.20;;;;;;5073787;28;19951;-92
2022/11/15 13:45:16;;;;;;;;;;;18.00;87.40;;;;;;5072395;28;19908;-92
2022/11/15 13:47:41;;;;;;;;;;;18.00;87.20;;;;;;5107620;28;19909;-92
2022/11/15 13:50:10;;;;;;;;;;;18.00;87.30;;;;;;5105073;28;19915;-91
2022/11/15 13:52:36;;;;;;;;;;;18.00;87.40;;;;;;5087609;28;19977;-92
2022/11/15 13:55:08;;;;;;;;;;;17.90;87.40;;;;;;5105640;28;20047;-93
2022/11/15 13:57:43;;;;;;;;;;;17.90;87.40;;;;;;5108296;28;19908;-92
2022/11/15 14:00:27;;;;;;;;;;;17.90;87.40;;;;;;5073465;28;20261;-91
2022/11/15 14:02:54;;;;;;;;;;;17.90;87.30;;;;;;5071441;28;20177;-92
2022/11/15 14:05:28;;;;;;;;;;;17.90;87.40;;;;;;5103841;28;20008;-92
2022/11/15 14:07:54;;;;;;;;;;;17.90;87.40;;;;;;5103053;28;19919;-92
2022/11/15 14:10:33;;;;;;;;;;;17.90;87.50;;;;;;5070443;28;20187;-92
2022/11/15 14:12:59;;;;;;;;;;;17.90;87.40;;;;;;5101921;28;19908;-91
2022/11/15 14:15:30;;;;;;;;;;;17.90;87.50;;;;;;5104842;28;20063;-92
2022/11/15 14:17:56;;;;;;;;;;;17.80;87.60;;;;;;5103461;28;19916;-92
2022/11/15 14:20:32;;;;;;;;;;;17.80;87.70;;;;;;5104501;28;19922;-91
2022/11/15 14:23:06;;;;;;;;;;;17.80;87.80;;;;;;5104422;28;19908;-91
2022/11/15 14:25:31;;;;;;;;;;;17.80;87.80;;;;;;5103674;28;19908;-91
2022/11/15 14:28:16;;;;;;;;;;;17.80;88.00;;;;;;5069111;28;20189;-92
2022/11/15 14:30:43;;;;;;;;;;;17.80;88.10;;;;;;5100457;28;19999;-92
2022/11/15 14:33:31;;;;;;;;;;;17.80;88.30;;;;;;5100711;28;19916;-92
2022/11/15 14:35:58;;;;;;;;;;;17.80;88.40;;;;;;5056527;28;20218;-92